createdAt,value
2023-05-19T00:07:14.615Z,95.7
2023-05-19T00:09:20.432Z,95.8
2023-05-19T00:11:26.267Z,95.9
2023-05-19T00:13:35.133Z,96.1
2023-05-19T00:17:46.746Z,96.4
2023-05-19T00:20:56.943Z,96.6
2023-05-19T00:25:08.533Z,96.8
2023-05-19T00:27:17.450Z,97
2023-05-19T00:29:23.189Z,97.1
2023-05-19T00:31:29.013Z,97.2
2023-05-19T00:42:01.089Z,97.8
2023-05-19T00:44:06.874Z,97.9
2023-05-19T00:46:12.771Z,98
2023-05-19T00:48:18.476Z,98.2
2023-05-19T00:50:24.255Z,98.3
2023-05-19T00:52:30.061Z,98.4
2023-05-19T00:54:35.845Z,98.5
2023-05-19T00:56:44.681Z,98.7
2023-05-19T01:00:56.327Z,99
2023-05-19T01:03:02.138Z,99.1
2023-05-19T01:09:19.425Z,99.5
2023-05-19T01:11:28.285Z,99.7
2023-05-19T01:13:34.078Z,99.8
2023-05-19T01:16:44.377Z,99.9
2023-05-19T01:18:50.121Z,99.9
2023-05-19T01:20:55.858Z,99.9
2023-05-19T01:23:01.628Z,99.9
2023-05-19T01:25:10.579Z,99.9
2023-05-19T01:27:16.272Z,99.9
2023-05-19T01:29:22.079Z,99.9
2023-05-19T01:31:29.451Z,99.9
2023-05-19T01:33:35.194Z,99.9
2023-05-19T01:44:07.155Z,99.9
2023-05-19T01:52:30.260Z,99.9
2023-05-19T01:56:44.911Z,99.9
2023-05-19T01:58:50.678Z,99.9
2023-05-19T02:00:56.498Z,99.9
2023-05-19T02:03:02.280Z,99.9
2023-05-19T02:05:07.965Z,99.9
2023-05-19T02:09:22.615Z,99.9
2023-05-19T02:11:28.361Z,99.9
2023-05-19T02:13:34.173Z,99.9
2023-05-19T02:14:38.602Z,99.9
2023-05-19T02:18:50.200Z,99.9
2023-05-19T02:20:55.913Z,99.9
2023-05-19T02:25:10.526Z,99.9
2023-05-19T02:27:16.307Z,99.9
2023-05-19T02:37:48.219Z,99.9
2023-05-19T02:41:59.758Z,99.9
2023-05-19T02:44:05.534Z,99.9
2023-05-19T02:46:11.314Z,99.9
2023-05-19T02:48:17.066Z,99.9
2023-05-19T02:54:37.431Z,99.9
2023-05-19T02:56:43.190Z,99.9
2023-05-19T03:00:54.719Z,99.9
2023-05-19T03:03:00.590Z,99.9
2023-05-19T03:13:52.017Z,99.9
2023-05-19T03:15:57.812Z,99.9
2023-05-19T03:18:03.612Z,99.9
2023-05-19T03:20:12.373Z,99.9
2023-05-19T03:22:18.096Z,99.9
2023-05-19T03:24:23.869Z,99.9
2023-05-19T03:47:30.357Z,99.9
2023-05-19T03:58:02.146Z,99.9
2023-05-19T04:00:07.914Z,99.9
2023-05-19T04:02:13.701Z,99.9
2023-05-19T04:04:22.531Z,99.9
2023-05-19T04:06:28.231Z,99.9
2023-05-19T04:11:44.169Z,99.9
2023-05-19T04:13:49.900Z,99.9
2023-05-19T04:15:55.673Z,99.9
2023-05-19T04:18:04.550Z,99.9
2023-05-19T04:20:10.217Z,99.9
2023-05-19T04:22:15.978Z,99.9
2023-05-19T04:24:21.738Z,99.9
2023-05-19T04:26:27.443Z,99.9
2023-05-19T04:28:33.213Z,99.9
2023-05-19T04:30:38.991Z,99.9
2023-05-19T04:32:47.817Z,99.9
2023-05-19T04:34:53.583Z,99.9
2023-05-19T04:39:05.042Z,99.9
2023-05-19T04:49:36.920Z,99.9
2023-05-19T04:51:42.693Z,99.9
2023-05-19T04:53:48.476Z,99.9
2023-05-19T04:55:54.207Z,99.9
2023-05-19T04:57:59.985Z,99.9
2023-05-19T05:00:05.738Z,99.9
2023-05-19T05:04:20.374Z,99.9
2023-05-19T05:07:32.336Z,99.9
2023-05-19T05:18:02.554Z,99.9
2023-05-19T05:20:08.233Z,99.9
2023-05-19T05:22:14.029Z,99.9
2023-05-19T05:24:19.836Z,99.9
2023-05-19T05:28:31.373Z,99.9
2023-05-19T05:30:40.212Z,99.9
2023-05-19T05:32:46.041Z,99.9
2023-05-19T05:34:51.799Z,99.9
2023-05-19T05:36:57.584Z,99.9
2023-05-19T05:39:03.341Z,99.9
2023-05-19T05:41:09.122Z,99.9
2023-05-19T05:45:23.794Z,99.9
2023-05-19T05:47:29.632Z,99.9
2023-05-19T05:49:35.704Z,99.9
2023-05-19T05:51:42.941Z,99.9
2023-05-19T05:55:52.867Z,99.9
2023-05-19T05:57:58.657Z,99.9
2023-05-19T06:00:07.599Z,99.9
2023-05-19T06:02:13.449Z,99.9
2023-05-19T06:04:19.210Z,99.9
2023-05-19T06:11:41.117Z,99.9
2023-05-19T06:13:50.068Z,99.9
2023-05-19T06:15:55.932Z,99.9
2023-05-19T06:18:01.776Z,99.9
2023-05-19T06:20:07.576Z,99.9
2023-05-19T06:22:13.387Z,99.9
2023-05-19T06:24:19.161Z,99.8
2023-05-19T06:26:24.875Z,99.7
2023-05-19T06:28:33.635Z,99.6
2023-05-19T06:30:39.458Z,99.3
2023-05-19T06:32:45.222Z,89.8
2023-05-19T06:34:50.974Z,82.7
2023-05-19T06:36:56.714Z,73.5
2023-05-19T06:39:02.781Z,72.9
2023-05-19T06:41:08.288Z,71.2
2023-05-19T06:45:22.823Z,62.5
2023-05-19T06:47:28.724Z,62.7
2023-05-19T06:49:34.381Z,62.7
2023-05-19T06:51:40.151Z,62.5
2023-05-19T06:53:45.944Z,62.1
2023-05-19T06:55:59.412Z,61.9
2023-05-19T06:58:00.463Z,60.9
2023-05-19T07:00:06.227Z,61.3
2023-05-19T07:17:20.659Z,62.4
2023-05-19T07:19:26.501Z,62.4
2023-05-19T07:21:32.144Z,63.2
2023-05-19T07:23:37.866Z,63.3
2023-05-19T07:25:46.603Z,63.8
2023-05-19T07:27:52.377Z,64.3
2023-05-19T07:29:58.104Z,64.4
2023-05-19T07:32:03.861Z,63.5
2023-05-19T07:34:11.191Z,62.2
2023-05-19T07:36:16.881Z,58.8
2023-05-19T07:38:22.626Z,58.4
2023-05-19T07:40:31.609Z,57.7
2023-05-19T07:42:37.063Z,57.5
2023-05-19T07:44:42.789Z,57.6
2023-05-19T07:46:48.508Z,57.6
2023-05-19T07:48:54.246Z,59
2023-05-19T07:57:20.114Z,57.8
2023-05-19T07:59:25.829Z,57.5
2023-05-19T08:00:30.206Z,57.6
2023-05-19T08:02:35.929Z,57.5
2023-05-19T08:04:41.636Z,57.5
2023-05-19T08:06:47.305Z,57.4
2023-05-19T08:21:30.306Z,57.6
2023-05-19T08:34:07.675Z,55.1
2023-05-19T08:36:13.406Z,52.6
2023-05-19T08:38:22.137Z,51.2
2023-05-19T08:40:27.824Z,50.5
2023-05-19T08:42:33.583Z,50
2023-05-19T08:46:45.111Z,49.5
2023-05-19T08:48:50.743Z,49.4
2023-05-19T08:50:56.491Z,49.4
2023-05-19T08:53:05.194Z,49.3
2023-05-19T08:55:10.899Z,49.2
2023-05-19T08:57:16.674Z,48.9
2023-05-19T08:58:21.025Z,48.9
2023-05-19T09:00:26.733Z,48.5
2023-05-19T09:02:32.510Z,48.5
2023-05-19T09:04:38.235Z,48.1
2023-05-19T09:06:46.896Z,48.6
2023-05-19T09:08:52.658Z,48.7
2023-05-19T09:10:58.399Z,48.8
2023-05-19T09:13:04.151Z,48.8
2023-05-19T09:15:09.887Z,49
2023-05-19T09:17:15.650Z,48.9
2023-05-19T09:19:21.487Z,48.6
2023-05-19T09:21:30.123Z,48.3
2023-05-19T09:23:35.887Z,48.2
2023-05-19T09:25:41.629Z,47.8
2023-05-19T09:27:47.389Z,47.6
2023-05-19T09:29:53.128Z,47.6
2023-05-19T09:31:58.952Z,47.7
2023-05-19T09:34:04.661Z,47.4
2023-05-19T09:36:13.428Z,47.5
2023-05-19T09:40:24.922Z,47.4
2023-05-19T09:44:36.461Z,47.3
2023-05-19T09:46:42.245Z,47
2023-05-19T09:48:47.914Z,46.7
2023-05-19T09:50:56.662Z,45.4
2023-05-19T09:56:12.553Z,44.9
2023-05-19T09:58:18.295Z,44.7
2023-05-19T10:04:38.579Z,45.7
2023-05-19T10:06:44.302Z,45.4
2023-05-19T10:15:07.396Z,45.8
2023-05-19T10:17:13.060Z,46.2
2023-05-19T10:19:21.841Z,46.4
2023-05-19T10:21:27.574Z,46.6
2023-05-19T10:23:33.300Z,46.3
2023-05-19T10:25:39.059Z,46.4
2023-05-19T10:27:44.883Z,46.5
2023-05-19T10:29:50.577Z,46.6
2023-05-19T10:31:56.442Z,46.7
2023-05-19T10:34:05.091Z,47.3
2023-05-19T10:36:10.877Z,47.1
2023-05-19T10:38:16.626Z,46.8
2023-05-19T10:40:22.398Z,46.7
2023-05-19T10:42:28.129Z,46.6
2023-05-19T10:44:33.897Z,46.5
2023-05-19T10:46:39.707Z,46
2023-05-19T10:48:48.406Z,45.6
2023-05-19T10:50:54.190Z,45.6
2023-05-19T10:52:59.952Z,45.3
2023-05-19T10:57:36.870Z,45
2023-05-19T11:01:51.412Z,44.5
2023-05-19T11:03:57.352Z,44.3
2023-05-19T11:06:02.893Z,44.4
2023-05-19T11:10:14.449Z,44.4
2023-05-19T11:12:20.239Z,44.9
2023-05-19T11:14:25.957Z,44.8
2023-05-19T11:16:34.768Z,45.2
2023-05-19T11:18:40.483Z,45.2
2023-05-19T11:22:51.980Z,44.9
2023-05-19T11:24:57.765Z,44.9
2023-05-19T11:27:03.507Z,45
2023-05-19T11:29:09.271Z,44.8
2023-05-19T11:31:18.041Z,44.3
2023-05-19T11:33:23.787Z,44.4
2023-05-19T11:35:29.561Z,44.5
2023-05-19T11:37:35.315Z,44.2
2023-05-19T11:39:41.083Z,44.4
2023-05-19T11:41:46.843Z,44.9
2023-05-19T11:48:07.285Z,45.5
2023-05-19T11:50:12.904Z,45.5
2023-05-19T11:51:17.286Z,45
2023-05-19T11:53:23.045Z,44.7
2023-05-19T11:55:28.835Z,44.4
2023-05-19T11:57:34.590Z,44.5
2023-05-19T12:01:49.103Z,44.2
2023-05-19T12:03:55.024Z,44.1
2023-05-19T12:06:00.717Z,43.8
2023-05-19T12:08:06.437Z,43.4
2023-05-19T12:10:12.215Z,43.4
2023-05-19T12:12:17.977Z,43.4
2023-05-19T12:14:26.685Z,43.5
2023-05-19T12:16:33.452Z,43.6
2023-05-19T12:18:38.294Z,43.8
2023-05-19T12:20:44.067Z,44.1
2023-05-19T12:22:49.815Z,44
2023-05-19T12:27:01.364Z,44.2
2023-05-19T12:29:10.147Z,44.1
2023-05-19T12:37:33.266Z,44.3
2023-05-19T12:39:39.015Z,44.6
2023-05-19T12:41:44.810Z,44.7
2023-05-19T12:43:53.571Z,44.7
2023-05-19T12:45:59.336Z,44.6
2023-05-19T12:48:05.161Z,44.3
2023-05-19T12:49:09.478Z,44.5
2023-05-19T12:55:26.905Z,43.7
2023-05-19T12:59:41.397Z,43.4
2023-05-19T13:03:53.294Z,43.7
2023-05-19T13:08:04.504Z,43.5
2023-05-19T13:10:10.347Z,43.4
2023-05-19T13:12:19.067Z,43.4
2023-05-19T13:14:24.861Z,43.7
2023-05-19T13:18:36.410Z,44.1
2023-05-19T13:27:02.510Z,43.8
2023-05-19T13:29:08.299Z,43.7
2023-05-19T13:31:14.113Z,43.8
2023-05-19T13:35:25.631Z,43.6
2023-05-19T13:39:38.789Z,42.9
2023-05-19T13:41:47.518Z,42.6
2023-05-19T13:47:03.563Z,42.5
2023-05-19T13:49:09.327Z,42.7
2023-05-19T13:55:29.661Z,41.9
2023-05-19T13:57:35.416Z,41.9
2023-05-19T13:59:52.926Z,41.6
2023-05-19T14:01:47.039Z,41.7
2023-05-19T14:03:52.924Z,42.1
2023-05-19T14:05:58.538Z,42.2
2023-05-19T14:08:04.322Z,42
2023-05-19T14:10:13.087Z,41.7
2023-05-19T14:12:19.330Z,41.5
2023-05-19T14:14:24.638Z,41.2
2023-05-19T14:20:42.004Z,40.8
2023-05-19T14:27:02.330Z,40.8
2023-05-19T14:35:25.436Z,41.1
2023-05-19T14:37:31.249Z,41.1
2023-05-19T14:41:45.788Z,41.2
2023-05-19T14:54:48.807Z,40.3
2023-05-19T15:05:17.731Z,40.4
2023-05-19T15:07:26.503Z,40.3
2023-05-19T15:09:32.288Z,40.1
2023-05-19T15:11:38.036Z,40.1
2023-05-19T15:13:43.841Z,40
2023-05-19T15:17:55.428Z,39.9
2023-05-19T15:20:01.406Z,39.9
2023-05-19T15:22:10.031Z,39.9
2023-05-19T15:24:15.748Z,39.8
2023-05-19T15:36:53.459Z,40.1
2023-05-19T15:38:59.229Z,40.1
2023-05-19T15:41:05.027Z,39.9
2023-05-19T15:42:09.392Z,39.8
2023-05-19T15:54:47.100Z,40.5
2023-05-19T15:56:52.861Z,40.3
2023-05-19T16:05:19.020Z,39.1
2023-05-19T16:07:24.792Z,39
2023-05-19T16:09:30.563Z,38.9
2023-05-19T16:13:42.147Z,39
2023-05-19T16:15:47.950Z,39.2
2023-05-19T16:17:53.715Z,39.2
2023-05-19T16:20:02.499Z,39.9
2023-05-19T16:22:08.267Z,40.1
2023-05-19T16:24:14.041Z,40.3
2023-05-19T16:26:19.831Z,40.3
2023-05-19T16:28:25.605Z,40.6
2023-05-19T16:30:31.397Z,40.8
2023-05-19T16:32:37.190Z,41
2023-05-19T16:38:57.525Z,41.4
2023-05-19T16:40:01.891Z,41.5
2023-05-19T16:42:07.732Z,41.3
2023-05-19T16:44:13.524Z,41.3
2023-05-19T16:46:19.298Z,41.2
2023-05-19T16:48:28.049Z,41.1
2023-05-19T16:54:45.415Z,40.5
2023-05-19T16:56:51.272Z,40.4
2023-05-19T16:58:56.977Z,40.2
2023-05-19T17:01:02.853Z,40
2023-05-19T17:03:11.795Z,39.8
2023-05-19T17:05:17.313Z,39.9
2023-05-19T17:09:28.910Z,40.3
2023-05-19T17:11:34.687Z,40.7
2023-05-19T17:13:40.478Z,41
2023-05-19T17:15:46.259Z,41.2
2023-05-19T17:17:55.038Z,41.6
2023-05-19T17:22:06.572Z,41.8
2023-05-19T17:24:12.362Z,41.8
2023-05-19T17:26:18.143Z,41.8
2023-05-19T17:28:23.963Z,41.6
2023-05-19T17:30:29.708Z,41.5
2023-05-19T17:34:44.315Z,41.3
2023-05-19T17:37:54.455Z,41.3
2023-05-19T17:42:06.026Z,41.3
2023-05-19T17:44:11.827Z,41.4
2023-05-19T17:50:32.801Z,42.4
2023-05-19T17:52:38.027Z,42.7
2023-05-19T17:54:43.806Z,42.9
2023-05-19T17:56:49.625Z,43
2023-05-19T17:58:55.434Z,43.1
2023-05-19T18:03:10.084Z,43.6
2023-05-19T18:07:21.593Z,43.6
2023-05-19T18:09:29.085Z,43.6
2023-05-19T18:11:33.186Z,43.8
2023-05-19T18:22:05.176Z,43.9
2023-05-19T18:24:11.014Z,43.8
2023-05-19T18:26:16.777Z,43.8
2023-05-19T18:28:22.596Z,43.8
2023-05-19T18:30:31.553Z,43.9
2023-05-19T18:37:14.233Z,44.4
2023-05-19T18:39:20.004Z,44.5
2023-05-19T18:41:25.948Z,44.7
2023-05-19T18:43:34.599Z,44.9
2023-05-19T18:45:40.430Z,45.1
2023-05-19T18:47:46.277Z,45.5
2023-05-19T18:49:52.024Z,45.6
2023-05-19T18:51:57.840Z,45.7
2023-05-19T19:06:42.037Z,47.6
2023-05-19T19:08:47.260Z,47.8
2023-05-19T19:10:53.087Z,48
2023-05-19T19:13:01.868Z,48.3
2023-05-19T19:15:07.680Z,48.5
2023-05-19T19:17:13.657Z,48.6
2023-05-19T19:19:19.358Z,48.8
2023-05-19T19:23:30.858Z,49.2
2023-05-19T19:25:36.664Z,49.4
2023-05-19T19:27:45.446Z,49.8
2023-05-19T19:29:51.234Z,50
2023-05-19T19:31:57.115Z,50.2
2023-05-19T19:33:01.498Z,50.1
2023-05-19T19:37:13.014Z,50.3
2023-05-19T19:39:20.445Z,50.4
2023-05-19T19:41:29.857Z,50
2023-05-19T19:43:35.664Z,50.3
2023-05-19T19:45:41.453Z,50.3
2023-05-19T19:47:47.296Z,50.3
2023-05-19T19:51:58.878Z,51.1
2023-05-19T20:17:14.527Z,54.3
2023-05-19T20:19:20.371Z,54.5
2023-05-19T20:21:26.161Z,54.7
2023-05-19T20:23:31.970Z,54.9
2023-05-19T20:25:47.674Z,55.2
2023-05-19T20:27:46.544Z,55.3
2023-05-19T20:29:52.341Z,55.3
2023-05-19T20:30:56.735Z,55.4
2023-05-19T20:33:02.596Z,55.4
2023-05-19T20:35:08.351Z,55.4
2023-05-19T20:39:22.908Z,55.5
2023-05-19T20:45:40.396Z,56.2
2023-05-19T20:47:46.190Z,56.6
2023-05-19T20:49:51.973Z,56.9
2023-05-19T20:51:57.761Z,57.4
2023-05-19T20:54:06.539Z,58.4
2023-05-19T21:04:35.596Z,60.5
2023-05-19T21:06:41.406Z,60.9
2023-05-19T21:08:50.154Z,62
2023-05-19T21:10:55.949Z,62.5
2023-05-19T21:13:01.759Z,63
2023-05-19T21:15:07.564Z,63.4
2023-05-19T21:17:13.447Z,63.9
2023-05-19T21:19:19.291Z,64.3
2023-05-19T21:23:33.727Z,65.7
2023-05-19T21:28:49.679Z,66.7
2023-05-19T21:30:55.550Z,66.8
2023-05-19T21:39:21.680Z,67.8
2023-05-19T21:41:27.481Z,68.2
2023-05-19T21:45:39.067Z,68.7
2023-05-19T21:47:44.918Z,69.1
2023-05-19T21:49:50.670Z,69.4
2023-05-19T21:51:59.472Z,69.9
2023-05-19T21:54:05.270Z,70.1
2023-05-19T21:56:11.048Z,70.3
2023-05-19T21:58:16.867Z,70.5
2023-05-19T22:00:22.721Z,70.6
2023-05-19T22:02:28.500Z,70.8
2023-05-19T22:04:34.259Z,70.9
2023-05-19T22:06:43.007Z,71.2
2023-05-19T22:08:48.804Z,71.4
2023-05-19T22:10:54.620Z,71.6
2023-05-19T22:15:06.126Z,71.7
2023-05-19T22:17:11.935Z,71.8
2023-05-19T22:19:18.211Z,71.9
2023-05-19T22:21:26.496Z,71.8
2023-05-19T22:23:32.328Z,71.8
2023-05-19T22:25:38.038Z,71.8
2023-05-19T22:28:09.407Z,71.6
2023-05-19T22:30:15.194Z,71.7
2023-05-19T22:32:20.987Z,71.7
2023-05-19T22:34:29.863Z,71.8
2023-05-19T22:36:35.516Z,71.8
2023-05-19T22:38:41.303Z,72
2023-05-19T22:40:47.078Z,72.1
2023-05-19T22:42:52.870Z,72.1
2023-05-19T22:44:58.673Z,72.2
2023-05-19T22:47:04.460Z,72.2
2023-05-19T22:49:13.237Z,72.4
2023-05-19T22:51:19.041Z,72.5
2023-05-19T22:53:24.813Z,72.5
2023-05-19T22:55:30.615Z,72.5
2023-05-19T22:57:36.373Z,72.6
2023-05-19T22:59:42.169Z,72.6
2023-05-19T23:01:48.040Z,72.7
2023-05-19T23:06:02.527Z,73.2
2023-05-19T23:08:08.303Z,73.3
2023-05-19T23:10:14.044Z,73.4
2023-05-19T23:14:25.659Z,73.6
2023-05-19T23:26:01.909Z,74.8
2023-05-19T23:28:07.653Z,75
2023-05-19T23:30:13.427Z,75.2
2023-05-19T23:32:22.266Z,75.6
2023-05-19T23:34:27.987Z,75.9
2023-05-19T23:38:39.558Z,76.3
2023-05-19T23:44:56.973Z,76.9
2023-05-19T23:47:05.802Z,77.4
2023-05-19T23:59:40.354Z,78.6
